| time (UTC) | temp F | wind direction | speed knots | gust knots | rain 1hr in | rain 24hr in | rain mn in | humidity % | barometer mb |
| 20260509064524 | 47 | 42 | 0.0 | 0.0 | 0.00 | 0.03 | 0.00 | 92 | 1011.2 |
| 20260509063021 | 47 | 42 | 0.0 | 0.0 | 0.00 | 0.03 | 0.00 | 92 | 1011.7 |
| 20260509061517 | 47 | 42 | 0.0 | 0.0 | 0.00 | 0.03 | 0.00 | 91 | 1012.0 |
| 20260509060017 | 48 | 42 | 0.0 | 0.0 | 0.00 | 0.03 | 0.00 | 91 | 1012.1 |
| 20260509054523 | 48 | 42 | 0.0 | 0.9 | 0.00 | 0.03 | 0.00 | 90 | 1012.1 |
| 20260509053028 | 48 | 42 | 0.0 | 0.0 | 0.00 | 0.03 | 0.00 | 90 | 1012.3 |
| 20260509051516 | 48 | 42 | 0.0 | 0.0 | 0.00 | 0.03 | 0.00 | 90 | 1012.6 |
| 20260509050032 | 48 | 42 | 0.0 | 0.0 | 0.00 | 0.03 | 0.00 | 90 | 1013.0 |
| 20260509044515 | 48 | 42 | 0.0 | 0.0 | 0.00 | 0.03 | 0.00 | 90 | 1013.0 |
| 20260509043007 | 48 | 42 | 0.0 | 0.0 | 0.00 | 0.03 | 0.00 | 90 | 1012.8 |
| 20260509041507 | 48 | 42 | 0.0 | 0.0 | 0.00 | 0.03 | 0.00 | 90 | 1012.8 |
| 20260509040005 | 48 | 42 | 0.0 | 0.0 | 0.00 | 0.03 | 0.00 | 89 | 1012.9 |
| 20260509034502 | 48 | 42 | 0.0 | 0.0 | 0.00 | 0.03 | 0.03 | 89 | 1013.1 |
| 20260509033002 | 48 | 42 | 0.0 | 0.0 | 0.00 | 0.03 | 0.03 | 88 | 1013.0 |
| 20260509031501 | 49 | 42 | 0.0 | 0.0 | 0.00 | 0.03 | 0.03 | 89 | 1012.8 |
| 20260509030004 | 48 | 42 | 0.0 | 0.0 | 0.00 | 0.03 | 0.03 | 88 | 1012.7 |
| 20260509024600 | 48 | 42 | 0.0 | 0.0 | 0.00 | 0.03 | 0.03 | 87 | 1012.8 |
| 20260509023100 | 49 | 42 | 0.0 | 0.9 | 0.00 | 0.03 | 0.03 | 87 | 1013.0 |
| 20260509021601 | 49 | 42 | 0.0 | 0.9 | 0.01 | 0.03 | 0.03 | 86 | 1013.1 |
| 20260509020058 | 50 | 43 | 0.0 | 0.0 | 0.01 | 0.03 | 0.03 | 84 | 1012.6 |
| 20260509014608 | 50 | 48 | 0.0 | 1.7 | 0.01 | 0.03 | 0.03 | 81 | 1012.3 |
| 20260509013110 | 51 | 217 | 0.0 | 0.9 | 0.01 | 0.03 | 0.03 | 79 | 1012.7 |
| 20260509011605 | 52 | 143 | 0.0 | 0.0 | 0.00 | 0.02 | 0.02 | 75 | 1012.6 |
| 20260509010056 | 52 | 142 | 0.0 | 0.9 | 0.00 | 0.02 | 0.02 | 73 | 1012.2 |
| 20260509004604 | 53 | 82 | 0.0 | 2.6 | 0.00 | 0.02 | 0.02 | 71 | 1011.8 |
| 20260509003121 | 53 | 119 | 0.0 | 3.5 | 0.00 | 0.02 | 0.02 | 70 | 1012.0 |
| 20260509001605 | 54 | 58 | 0.0 | 2.6 | 0.00 | 0.02 | 0.02 | 68 | 1011.9 |
| 20260509000111 | 54 | 59 | 0.9 | 3.5 | 0.00 | 0.02 | 0.02 | 69 | 1011.9 |
| 20260508234554 | 54 | 63 | 0.0 | 5.2 | 0.00 | 0.02 | 0.02 | 69 | 1011.8 |
| 20260508233054 | 54 | 108 | 0.9 | 6.1 | 0.00 | 0.02 | 0.02 | 69 | 1011.7 |
| 20260508231554 | 55 | 157 | 0.9 | 4.3 | 0.00 | 0.02 | 0.02 | 69 | 1011.7 |
| 20260508230053 | 55 | 354 | 0.9 | 7.0 | 0.00 | 0.02 | 0.02 | 68 | 1011.4 |
| 20260508224602 | 55 | 113 | 0.9 | 5.2 | 0.00 | 0.02 | 0.02 | 71 | 1011.3 |
| 20260508223051 | 55 | 44 | 0.0 | 4.3 | 0.00 | 0.02 | 0.02 | 72 | 1011.3 |
| 20260508221549 | 55 | 51 | 0.0 | 6.1 | 0.00 | 0.02 | 0.02 | 73 | 1011.4 |
| 20260508220049 | 55 | 49 | 0.0 | 3.5 | 0.00 | 0.02 | 0.02 | 75 | 1011.6 |
| 20260508214552 | 54 | 108 | 0.0 | 1.7 | 0.00 | 0.02 | 0.02 | 78 | 1011.6 |
| 20260508213048 | 53 | 73 | 0.9 | 5.2 | 0.01 | 0.02 | 0.02 | 79 | 1011.7 |
| 20260508211548 | 52 | 56 | 0.0 | 0.0 | 0.02 | 0.02 | 0.02 | 82 | 1011.5 |
| 20260508210047 | 52 | 55 | 0.0 | 1.7 | 0.02 | 0.02 | 0.02 | 82 | 1011.7 |
| 20260508204546 | 51 | 58 | 0.0 | 1.7 | 0.02 | 0.02 | 0.02 | 80 | 1011.8 |
| 20260508203050 | 54 | 53 | 0.9 | 6.1 | 0.01 | 0.01 | 0.01 | 72 | 1012.3 |
| 20260508201543 | 58 | 258 | 1.7 | 7.0 | 0.00 | 0.00 | 0.00 | 55 | 1011.5 |
| 20260508200056 | 58 | 214 | 0.9 | 2.6 | 0.00 | 0.00 | 0.00 | 56 | 1011.3 |
| 20260508194512 | 57 | 60 | 0.0 | 0.9 | 0.00 | 0.00 | 0.00 | 64 | 1011.4 |
| 20260508193053 | 56 | 49 | 0.0 | 3.5 | 0.00 | 0.00 | 0.00 | 62 | 1011.5 |
| 20260508191542 | 56 | 15 | 0.0 | 0.9 | 0.00 | 0.00 | 0.00 | 62 | 1011.7 |
| 20260508190045 | 56 | 32 | 0.9 | 3.5 | 0.00 | 0.00 | 0.00 | 60 | 1011.5 |
| 20260508184544 | 57 | 63 | 0.9 | 3.5 | 0.00 | 0.00 | 0.00 | 62 | 1011.7 |
| 20260508183041 | 56 | 56 | 0.9 | 5.2 | 0.00 | 0.00 | 0.00 | 61 | 1012.2 |
| 20260508181536 | 58 | 61 | 0.0 | 3.5 | 0.00 | 0.00 | 0.00 | 54 | 1012.0 |
| 20260508180034 | 58 | 97 | 0.9 | 2.6 | 0.00 | 0.00 | 0.00 | 56 | 1012.2 |
| 20260508174553 | 59 | 30 | 1.7 | 6.1 | 0.00 | 0.00 | 0.00 | 57 | 1012.1 |
| 20260508173032 | 56 | 70 | 0.9 | 6.1 | 0.00 | 0.00 | 0.00 | 65 | 1012.5 |
| 20260508171528 | 54 | 47 | 1.7 | 8.7 | 0.00 | 0.00 | 0.00 | 66 | 1012.7 |
| 20260508170032 | 56 | 61 | 0.9 | 5.2 | 0.00 | 0.00 | 0.00 | 55 | 1012.7 |
| 20260508164526 | 57 | 60 | 1.7 | 7.8 | 0.00 | 0.00 | 0.00 | 53 | 1012.6 |
| 20260508163039 | 56 | 58 | 0.9 | 7.0 | 0.00 | 0.00 | 0.00 | 52 | 1012.7 |
| 20260508161523 | 56 | 51 | 1.7 | 6.1 | 0.00 | 0.00 | 0.00 | 53 | 1012.7 |
| 20260508160026 | 57 | 110 | 0.9 | 4.3 | 0.00 | 0.00 | 0.00 | 53 | 1012.9 |
| 20260508154523 | 58 | 329 | 1.7 | 11.3 | 0.00 | 0.00 | 0.00 | 52 | 1012.8 |
| 20260508153027 | 58 | 265 | 1.7 | 10.4 | 0.00 | 0.00 | 0.00 | 51 | 1012.9 |
| 20260508151527 | 57 | 51 | 2.6 | 9.6 | 0.00 | 0.00 | 0.00 | 52 | 1012.8 |
| 20260508150016 | 56 | 157 | 2.6 | 10.4 | 0.00 | 0.00 | 0.00 | 52 | 1012.7 |
| 20260508144516 | 56 | 293 | 3.5 | 10.4 | 0.00 | 0.00 | 0.00 | 53 | 1012.6 |
| 20260508143011 | 55 | 230 | 0.9 | 11.3 | 0.00 | 0.00 | 0.00 | 56 | 1012.7 |
| 20260508141507 | 54 | 82 | 1.7 | 5.2 | 0.00 | 0.00 | 0.00 | 57 | 1012.9 |
| 20260508140004 | 53 | 126 | 1.7 | 5.2 | 0.00 | 0.00 | 0.00 | 59 | 1013.0 |
| 20260508134501 | 51 | 65 | 0.9 | 4.3 | 0.00 | 0.00 | 0.00 | 61 | 1013.0 |
| 20260508133105 | 50 | 261 | 0.0 | 4.3 | 0.00 | 0.00 | 0.00 | 64 | 1013.2 |
| 20260508131557 | 49 | 221 | 0.0 | 7.0 | 0.00 | 0.00 | 0.00 | 65 | 1013.3 |
| 20260508130104 | 48 | 278 | 0.0 | 2.6 | 0.00 | 0.00 | 0.00 | 67 | 1013.5 |
| 20260508124546 | 46 | 88 | 0.0 | 1.7 | 0.00 | 0.00 | 0.00 | 72 | 1013.5 |
| 20260508123043 | 43 | 242 | 0.0 | 1.7 | 0.00 | 0.00 | 0.00 | 77 | 1013.6 |
| 20260508121541 | 42 | 32 | 0.0 | 0.0 | 0.00 | 0.00 | 0.00 | 83 | 1013.6 |
| 20260508120042 | 41 | 32 | 0.0 | 0.9 | 0.00 | 0.00 | 0.00 | 83 | 1013.5 |
| 20260508114539 | 40 | 32 | 0.0 | 0.0 | 0.00 | 0.00 | 0.00 | 85 | 1013.7 |
| 20260508113048 | 38 | 32 | 0.0 | 0.0 | 0.00 | 0.00 | 0.00 | 86 | 1013.9 |
| 20260508111538 | 37 | 32 | 0.0 | 0.0 | 0.00 | 0.00 | 0.00 | 89 | 1013.9 |
| 20260508110050 | 36 | 32 | 0.0 | 0.0 | 0.00 | 0.00 | 0.00 | 89 | 1013.8 |
| 20260508104535 | 35 | 32 | 0.0 | 0.0 | 0.00 | 0.00 | 0.00 | 89 | 1013.6 |
| 20260508103038 | 35 | 33 | 0.0 | 0.9 | 0.00 | 0.00 | 0.00 | 90 | 1013.5 |
| 20260508101537 | 34 | 32 | 0.0 | 0.0 | 0.00 | 0.00 | 0.00 | 91 | 1013.5 |
| 20260508100035 | 34 | 32 | 0.0 | 0.0 | 0.00 | 0.00 | 0.00 | 90 | 1013.3 |
| 20260508094530 | 34 | 32 | 0.0 | 0.0 | 0.00 | 0.00 | 0.00 | 90 | 1013.2 |
| 20260508093043 | 34 | 32 | 0.0 | 0.0 | 0.00 | 0.00 | 0.00 | 90 | 1013.1 |
| 20260508091531 | 34 | 32 | 0.0 | 0.0 | 0.00 | 0.00 | 0.00 | 90 | 1013.0 |
| 20260508090034 | 34 | 32 | 0.0 | 0.0 | 0.00 | 0.00 | 0.00 | 89 | 1013.1 |
| 20260508084525 | 35 | 32 | 0.0 | 0.0 | 0.00 | 0.00 | 0.00 | 89 | 1013.0 |
| 20260508083026 | 35 | 32 | 0.0 | 0.0 | 0.00 | 0.00 | 0.00 | 89 | 1013.0 |
| 20260508081522 | 35 | 32 | 0.0 | 0.0 | 0.00 | 0.00 | 0.00 | 88 | 1013.0 |
| 20260508080032 | 36 | 32 | 0.0 | 0.0 | 0.00 | 0.00 | 0.00 | 88 | 1013.0 |
| 20260508074523 | 36 | 32 | 0.0 | 0.0 | 0.00 | 0.00 | 0.00 | 87 | 1012.9 |
| 20260508073016 | 37 | 32 | 0.0 | 0.0 | 0.00 | 0.00 | 0.00 | 86 | 1012.9 |
| 20260508071513 | 38 | 34 | 0.0 | 0.0 | 0.00 | 0.00 | 0.00 | 84 | 1013.0 |
| 20260508070011 | 39 | 34 | 0.0 | 0.0 | 0.00 | 0.00 | 0.00 | 83 | 1013.2 |